sensor_id;sensor_type;location;lat;lon;timestamp;P1;durP1;ratioP1;P2;durP2;ratioP2
12880;SDS011;6508;53.786;9.996;2023-08-20T00:00:18;29.13;;;14.77;;
12880;SDS011;6508;53.786;9.996;2023-08-20T00:02:47;27.73;;;14.98;;
12880;SDS011;6508;53.786;9.996;2023-08-20T00:05:18;27.60;;;15.68;;
12880;SDS011;6508;53.786;9.996;2023-08-20T00:07:46;28.80;;;15.90;;
12880;SDS011;6508;53.786;9.996;2023-08-20T00:10:14;29.75;;;15.93;;
12880;SDS011;6508;53.786;9.996;2023-08-20T00:12:41;31.40;;;16.35;;
12880;SDS011;6508;53.786;9.996;2023-08-20T00:15:11;28.02;;;17.15;;
12880;SDS011;6508;53.786;9.996;2023-08-20T00:17:39;29.92;;;15.85;;
12880;SDS011;6508;53.786;9.996;2023-08-20T00:20:08;26.13;;;15.98;;
12880;SDS011;6508;53.786;9.996;2023-08-20T00:22:39;28.10;;;15.90;;
12880;SDS011;6508;53.786;9.996;2023-08-20T00:25:09;28.83;;;15.52;;
12880;SDS011;6508;53.786;9.996;2023-08-20T00:27:38;29.20;;;15.82;;
12880;SDS011;6508;53.786;9.996;2023-08-20T00:30:06;29.63;;;15.95;;
12880;SDS011;6508;53.786;9.996;2023-08-20T00:32:36;26.58;;;15.35;;
12880;SDS011;6508;53.786;9.996;2023-08-20T00:35:04;31.88;;;15.40;;
12880;SDS011;6508;53.786;9.996;2023-08-20T00:37:36;27.17;;;15.30;;
12880;SDS011;6508;53.786;9.996;2023-08-20T00:40:05;23.95;;;15.13;;
12880;SDS011;6508;53.786;9.996;2023-08-20T00:42:34;24.75;;;14.02;;
12880;SDS011;6508;53.786;9.996;2023-08-20T00:45:02;28.25;;;15.20;;
12880;SDS011;6508;53.786;9.996;2023-08-20T00:47:30;30.40;;;14.68;;
12880;SDS011;6508;53.786;9.996;2023-08-20T00:50:01;27.92;;;15.15;;
12880;SDS011;6508;53.786;9.996;2023-08-20T00:52:32;27.70;;;15.00;;
12880;SDS011;6508;53.786;9.996;2023-08-20T00:55:00;28.50;;;15.90;;
12880;SDS011;6508;53.786;9.996;2023-08-20T00:57:30;30.92;;;16.70;;
12880;SDS011;6508;53.786;9.996;2023-08-20T00:59:59;25.73;;;14.60;;
12880;SDS011;6508;53.786;9.996;2023-08-20T01:02:27;25.00;;;14.55;;
12880;SDS011;6508;53.786;9.996;2023-08-20T01:04:55;23.73;;;13.25;;
12880;SDS011;6508;53.786;9.996;2023-08-20T01:07:27;24.20;;;14.25;;
12880;SDS011;6508;53.786;9.996;2023-08-20T01:10:02;23.13;;;14.23;;
12880;SDS011;6508;53.786;9.996;2023-08-20T01:12:31;25.42;;;14.77;;
12880;SDS011;6508;53.786;9.996;2023-08-20T01:15:02;27.27;;;14.55;;
12880;SDS011;6508;53.786;9.996;2023-08-20T01:17:30;27.02;;;14.32;;
12880;SDS011;6508;53.786;9.996;2023-08-20T01:19:59;21.65;;;14.05;;
12880;SDS011;6508;53.786;9.996;2023-08-20T01:22:40;27.33;;;14.45;;
12880;SDS011;6508;53.786;9.996;2023-08-20T01:25:11;29.15;;;13.30;;
12880;SDS011;6508;53.786;9.996;2023-08-20T01:27:49;28.17;;;13.88;;
12880;SDS011;6508;53.786;9.996;2023-08-20T01:30:21;33.15;;;16.60;;
12880;SDS011;6508;53.786;9.996;2023-08-20T01:32:49;31.05;;;15.88;;
12880;SDS011;6508;53.786;9.996;2023-08-20T01:35:17;29.63;;;15.18;;
12880;SDS011;6508;53.786;9.996;2023-08-20T01:37:45;27.58;;;15.07;;
12880;SDS011;6508;53.786;9.996;2023-08-20T01:40:13;34.78;;;14.77;;
12880;SDS011;6508;53.786;9.996;2023-08-20T01:42:41;27.35;;;13.70;;
12880;SDS011;6508;53.786;9.996;2023-08-20T01:45:09;23.33;;;14.40;;
12880;SDS011;6508;53.786;9.996;2023-08-20T01:47:39;21.80;;;12.80;;
12880;SDS011;6508;53.786;9.996;2023-08-20T01:50:07;23.15;;;13.52;;
12880;SDS011;6508;53.786;9.996;2023-08-20T01:52:35;20.38;;;12.93;;
12880;SDS011;6508;53.786;9.996;2023-08-20T01:55:03;22.90;;;13.05;;
12880;SDS011;6508;53.786;9.996;2023-08-20T01:57:32;29.00;;;13.18;;
12880;SDS011;6508;53.786;9.996;2023-08-20T02:00:00;25.05;;;14.07;;
12880;SDS011;6508;53.786;9.996;2023-08-20T02:02:40;23.55;;;12.75;;
12880;SDS011;6508;53.786;9.996;2023-08-20T02:05:08;23.00;;;14.00;;
12880;SDS011;6508;53.786;9.996;2023-08-20T02:07:37;29.10;;;15.55;;
12880;SDS011;6508;53.786;9.996;2023-08-20T02:10:06;23.05;;;14.32;;
12880;SDS011;6508;53.786;9.996;2023-08-20T02:12:34;26.10;;;13.63;;
12880;SDS011;6508;53.786;9.996;2023-08-20T02:15:01;20.15;;;12.63;;
12880;SDS011;6508;53.786;9.996;2023-08-20T02:17:31;29.50;;;14.27;;
12880;SDS011;6508;53.786;9.996;2023-08-20T02:20:01;26.92;;;12.98;;
12880;SDS011;6508;53.786;9.996;2023-08-20T02:22:30;29.58;;;12.93;;
12880;SDS011;6508;53.786;9.996;2023-08-20T02:24:57;22.58;;;12.88;;
12880;SDS011;6508;53.786;9.996;2023-08-20T02:27:25;26.27;;;13.80;;
12880;SDS011;6508;53.786;9.996;2023-08-20T02:29:53;25.65;;;13.00;;
12880;SDS011;6508;53.786;9.996;2023-08-20T02:32:21;22.33;;;12.27;;
12880;SDS011;6508;53.786;9.996;2023-08-20T02:34:50;21.40;;;11.82;;
12880;SDS011;6508;53.786;9.996;2023-08-20T02:37:19;18.63;;;11.30;;
12880;SDS011;6508;53.786;9.996;2023-08-20T02:39:47;17.55;;;11.35;;
12880;SDS011;6508;53.786;9.996;2023-08-20T02:42:15;13.25;;;10.80;;
12880;SDS011;6508;53.786;9.996;2023-08-20T02:44:44;18.27;;;11.60;;
12880;SDS011;6508;53.786;9.996;2023-08-20T02:47:11;18.98;;;11.75;;
12880;SDS011;6508;53.786;9.996;2023-08-20T02:49:39;17.08;;;12.35;;
12880;SDS011;6508;53.786;9.996;2023-08-20T02:52:07;15.35;;;10.57;;
12880;SDS011;6508;53.786;9.996;2023-08-20T02:54:36;13.55;;;10.73;;
12880;SDS011;6508;53.786;9.996;2023-08-20T02:57:04;15.02;;;10.68;;
12880;SDS011;6508;53.786;9.996;2023-08-20T02:59:32;18.65;;;10.63;;
12880;SDS011;6508;53.786;9.996;2023-08-20T03:02:00;14.25;;;10.13;;
12880;SDS011;6508;53.786;9.996;2023-08-20T03:04:28;12.40;;;9.82;;
12880;SDS011;6508;53.786;9.996;2023-08-20T03:06:56;15.40;;;10.63;;
12880;SDS011;6508;53.786;9.996;2023-08-20T03:09:24;14.05;;;9.90;;
12880;SDS011;6508;53.786;9.996;2023-08-20T03:11:53;11.25;;;9.27;;
12880;SDS011;6508;53.786;9.996;2023-08-20T03:14:22;12.82;;;9.65;;
12880;SDS011;6508;53.786;9.996;2023-08-20T03:16:53;10.00;;;9.10;;
12880;SDS011;6508;53.786;9.996;2023-08-20T03:19:21;16.30;;;9.38;;
12880;SDS011;6508;53.786;9.996;2023-08-20T03:21:49;10.45;;;9.40;;
12880;SDS011;6508;53.786;9.996;2023-08-20T03:24:17;10.82;;;9.10;;
12880;SDS011;6508;53.786;9.996;2023-08-20T03:26:44;11.40;;;9.77;;
12880;SDS011;6508;53.786;9.996;2023-08-20T03:29:15;10.65;;;9.32;;
12880;SDS011;6508;53.786;9.996;2023-08-20T03:31:43;14.38;;;10.63;;
12880;SDS011;6508;53.786;9.996;2023-08-20T03:34:11;15.43;;;10.02;;
12880;SDS011;6508;53.786;9.996;2023-08-20T03:36:39;11.43;;;9.05;;
12880;SDS011;6508;53.786;9.996;2023-08-20T03:39:07;11.93;;;9.80;;
12880;SDS011;6508;53.786;9.996;2023-08-20T03:41:35;13.98;;;10.02;;
12880;SDS011;6508;53.786;9.996;2023-08-20T03:44:03;15.43;;;10.35;;
12880;SDS011;6508;53.786;9.996;2023-08-20T03:46:33;22.60;;;10.57;;
12880;SDS011;6508;53.786;9.996;2023-08-20T03:49:01;22.13;;;10.90;;
12880;SDS011;6508;53.786;9.996;2023-08-20T03:51:29;17.95;;;12.00;;
12880;SDS011;6508;53.786;9.996;2023-08-20T03:53:56;18.73;;;11.98;;
12880;SDS011;6508;53.786;9.996;2023-08-20T03:56:24;18.92;;;11.27;;
12880;SDS011;6508;53.786;9.996;2023-08-20T03:58:52;18.35;;;11.38;;
12880;SDS011;6508;53.786;9.996;2023-08-20T04:01:20;16.00;;;11.40;;
12880;SDS011;6508;53.786;9.996;2023-08-20T04:03:49;20.27;;;10.48;;
12880;SDS011;6508;53.786;9.996;2023-08-20T04:06:17;13.80;;;10.38;;
12880;SDS011;6508;53.786;9.996;2023-08-20T04:08:44;13.68;;;10.88;;
12880;SDS011;6508;53.786;9.996;2023-08-20T04:11:13;12.57;;;10.25;;
12880;SDS011;6508;53.786;9.996;2023-08-20T04:13:41;13.90;;;9.50;;
12880;SDS011;6508;53.786;9.996;2023-08-20T04:16:10;13.70;;;10.27;;
12880;SDS011;6508;53.786;9.996;2023-08-20T04:18:37;17.90;;;9.85;;
12880;SDS011;6508;53.786;9.996;2023-08-20T04:21:07;16.95;;;9.90;;
12880;SDS011;6508;53.786;9.996;2023-08-20T04:23:36;13.65;;;10.43;;
12880;SDS011;6508;53.786;9.996;2023-08-20T04:26:04;14.95;;;10.00;;
12880;SDS011;6508;53.786;9.996;2023-08-20T04:28:32;12.48;;;10.07;;
12880;SDS011;6508;53.786;9.996;2023-08-20T04:31:00;17.40;;;10.50;;
12880;SDS011;6508;53.786;9.996;2023-08-20T04:33:41;16.33;;;10.25;;
12880;SDS011;6508;53.786;9.996;2023-08-20T04:36:10;11.27;;;9.45;;
12880;SDS011;6508;53.786;9.996;2023-08-20T04:38:38;13.43;;;10.38;;
12880;SDS011;6508;53.786;9.996;2023-08-20T04:41:09;13.10;;;9.70;;
12880;SDS011;6508;53.786;9.996;2023-08-20T04:43:36;15.20;;;10.95;;
12880;SDS011;6508;53.786;9.996;2023-08-20T04:46:04;16.98;;;11.15;;
12880;SDS011;6508;53.786;9.996;2023-08-20T04:48:32;16.98;;;11.75;;
12880;SDS011;6508;53.786;9.996;2023-08-20T04:51:00;17.35;;;11.57;;
12880;SDS011;6508;53.786;9.996;2023-08-20T04:53:29;16.05;;;10.68;;
12880;SDS011;6508;53.786;9.996;2023-08-20T04:55:58;13.35;;;10.20;;
12880;SDS011;6508;53.786;9.996;2023-08-20T04:58:26;18.13;;;11.13;;
12880;SDS011;6508;53.786;9.996;2023-08-20T05:00:54;16.63;;;10.65;;
12880;SDS011;6508;53.786;9.996;2023-08-20T05:03:22;12.85;;;9.68;;
12880;SDS011;6508;53.786;9.996;2023-08-20T05:05:49;18.25;;;10.43;;
12880;SDS011;6508;53.786;9.996;2023-08-20T05:08:17;12.93;;;9.95;;
12880;SDS011;6508;53.786;9.996;2023-08-20T05:10:47;13.68;;;9.95;;
12880;SDS011;6508;53.786;9.996;2023-08-20T05:13:14;20.48;;;10.27;;
12880;SDS011;6508;53.786;9.996;2023-08-20T05:15:43;13.35;;;9.52;;
12880;SDS011;6508;53.786;9.996;2023-08-20T05:18:11;11.50;;;9.50;;
12880;SDS011;6508;53.786;9.996;2023-08-20T05:20:39;16.55;;;10.57;;
12880;SDS011;6508;53.786;9.996;2023-08-20T05:23:07;15.73;;;10.43;;
12880;SDS011;6508;53.786;9.996;2023-08-20T05:25:35;14.88;;;10.25;;
12880;SDS011;6508;53.786;9.996;2023-08-20T05:28:04;15.40;;;9.98;;
12880;SDS011;6508;53.786;9.996;2023-08-20T05:30:33;13.43;;;9.07;;
12880;SDS011;6508;53.786;9.996;2023-08-20T05:33:02;12.55;;;8.80;;
12880;SDS011;6508;53.786;9.996;2023-08-20T05:35:34;11.68;;;9.20;;
12880;SDS011;6508;53.786;9.996;2023-08-20T05:38:02;11.32;;;8.65;;
12880;SDS011;6508;53.786;9.996;2023-08-20T05:40:31;10.73;;;8.70;;
12880;SDS011;6508;53.786;9.996;2023-08-20T05:42:58;16.23;;;8.35;;
12880;SDS011;6508;53.786;9.996;2023-08-20T05:45:28;18.17;;;8.68;;
12880;SDS011;6508;53.786;9.996;2023-08-20T05:47:55;13.90;;;7.78;;
12880;SDS011;6508;53.786;9.996;2023-08-20T05:50:24;29.45;;;8.38;;
12880;SDS011;6508;53.786;9.996;2023-08-20T05:52:52;13.18;;;8.25;;
12880;SDS011;6508;53.786;9.996;2023-08-20T05:55:21;12.27;;;9.27;;
12880;SDS011;6508;53.786;9.996;2023-08-20T05:57:48;12.95;;;9.32;;
12880;SDS011;6508;53.786;9.996;2023-08-20T06:00:17;14.73;;;9.32;;
12880;SDS011;6508;53.786;9.996;2023-08-20T06:02:47;12.75;;;9.70;;
12880;SDS011;6508;53.786;9.996;2023-08-20T06:05:16;9.13;;;8.20;;
12880;SDS011;6508;53.786;9.996;2023-08-20T06:07:43;13.18;;;9.02;;
12880;SDS011;6508;53.786;9.996;2023-08-20T06:10:11;13.73;;;10.00;;
12880;SDS011;6508;53.786;9.996;2023-08-20T06:12:39;11.90;;;8.82;;
12880;SDS011;6508;53.786;9.996;2023-08-20T06:15:07;9.90;;;8.00;;
12880;SDS011;6508;53.786;9.996;2023-08-20T06:17:35;9.32;;;7.95;;
12880;SDS011;6508;53.786;9.996;2023-08-20T06:20:06;12.43;;;7.60;;
12880;SDS011;6508;53.786;9.996;2023-08-20T06:22:35;10.05;;;7.40;;
12880;SDS011;6508;53.786;9.996;2023-08-20T06:25:03;9.80;;;7.68;;
12880;SDS011;6508;53.786;9.996;2023-08-20T06:27:31;9.32;;;8.20;;
12880;SDS011;6508;53.786;9.996;2023-08-20T06:30:01;9.50;;;7.43;;
12880;SDS011;6508;53.786;9.996;2023-08-20T06:32:29;10.52;;;7.50;;
12880;SDS011;6508;53.786;9.996;2023-08-20T06:34:56;9.45;;;8.00;;
12880;SDS011;6508;53.786;9.996;2023-08-20T06:37:26;9.68;;;8.13;;
12880;SDS011;6508;53.786;9.996;2023-08-20T06:39:54;8.52;;;7.68;;
12880;SDS011;6508;53.786;9.996;2023-08-20T06:42:21;10.52;;;7.20;;
12880;SDS011;6508;53.786;9.996;2023-08-20T06:44:49;7.72;;;6.97;;
12880;SDS011;6508;53.786;9.996;2023-08-20T06:47:17;7.60;;;5.25;;
12880;SDS011;6508;53.786;9.996;2023-08-20T06:49:45;11.90;;;5.72;;
12880;SDS011;6508;53.786;9.996;2023-08-20T06:52:12;6.28;;;4.78;;
12880;SDS011;6508;53.786;9.996;2023-08-20T06:54:42;9.35;;;5.43;;
12880;SDS011;6508;53.786;9.996;2023-08-20T06:57:10;6.15;;;4.60;;
12880;SDS011;6508;53.786;9.996;2023-08-20T06:59:37;7.80;;;4.93;;
12880;SDS011;6508;53.786;9.996;2023-08-20T07:02:05;6.43;;;5.82;;
12880;SDS011;6508;53.786;9.996;2023-08-20T07:04:33;6.60;;;5.03;;
12880;SDS011;6508;53.786;9.996;2023-08-20T07:07:00;6.30;;;5.55;;
12880;SDS011;6508;53.786;9.996;2023-08-20T07:09:31;8.48;;;6.60;;
12880;SDS011;6508;53.786;9.996;2023-08-20T07:12:00;6.57;;;6.05;;
12880;SDS011;6508;53.786;9.996;2023-08-20T07:14:28;6.80;;;6.32;;
12880;SDS011;6508;53.786;9.996;2023-08-20T07:16:56;7.65;;;7.05;;
12880;SDS011;6508;53.786;9.996;2023-08-20T07:19:24;7.30;;;6.68;;
12880;SDS011;6508;53.786;9.996;2023-08-20T07:21:52;7.32;;;6.82;;
12880;SDS011;6508;53.786;9.996;2023-08-20T07:24:20;7.45;;;6.82;;
12880;SDS011;6508;53.786;9.996;2023-08-20T07:26:51;7.95;;;7.20;;
12880;SDS011;6508;53.786;9.996;2023-08-20T07:29:23;8.60;;;6.68;;
12880;SDS011;6508;53.786;9.996;2023-08-20T07:31:51;7.30;;;6.47;;
12880;SDS011;6508;53.786;9.996;2023-08-20T07:34:19;8.35;;;7.63;;
12880;SDS011;6508;53.786;9.996;2023-08-20T07:36:47;8.13;;;7.28;;
12880;SDS011;6508;53.786;9.996;2023-08-20T07:39:15;9.65;;;6.95;;
12880;SDS011;6508;53.786;9.996;2023-08-20T07:41:44;8.48;;;6.75;;
12880;SDS011;6508;53.786;9.996;2023-08-20T07:44:12;7.50;;;6.93;;
12880;SDS011;6508;53.786;9.996;2023-08-20T07:46:41;7.28;;;6.85;;
12880;SDS011;6508;53.786;9.996;2023-08-20T07:49:09;7.25;;;6.65;;
12880;SDS011;6508;53.786;9.996;2023-08-20T07:51:37;7.60;;;6.95;;
12880;SDS011;6508;53.786;9.996;2023-08-20T07:54:05;7.25;;;6.55;;
12880;SDS011;6508;53.786;9.996;2023-08-20T07:56:32;8.82;;;8.05;;
12880;SDS011;6508;53.786;9.996;2023-08-20T07:59:00;9.07;;;8.38;;
12880;SDS011;6508;53.786;9.996;2023-08-20T08:01:28;9.13;;;8.52;;
12880;SDS011;6508;53.786;9.996;2023-08-20T08:03:58;10.75;;;9.68;;
12880;SDS011;6508;53.786;9.996;2023-08-20T08:06:26;11.23;;;10.32;;
12880;SDS011;6508;53.786;9.996;2023-08-20T08:08:54;10.43;;;9.73;;
12880;SDS011;6508;53.786;9.996;2023-08-20T08:11:22;10.73;;;9.93;;
12880;SDS011;6508;53.786;9.996;2023-08-20T08:13:50;10.90;;;9.82;;
12880;SDS011;6508;53.786;9.996;2023-08-20T08:16:18;10.75;;;9.80;;
12880;SDS011;6508;53.786;9.996;2023-08-20T08:18:46;8.60;;;7.90;;
12880;SDS011;6508;53.786;9.996;2023-08-20T08:21:15;8.00;;;7.40;;
12880;SDS011;6508;53.786;9.996;2023-08-20T08:23:42;7.97;;;7.28;;
12880;SDS011;6508;53.786;9.996;2023-08-20T08:26:10;7.72;;;6.88;;
12880;SDS011;6508;53.786;9.996;2023-08-20T08:28:38;8.25;;;7.45;;
12880;SDS011;6508;53.786;9.996;2023-08-20T08:31:06;7.80;;;7.00;;
12880;SDS011;6508;53.786;9.996;2023-08-20T08:33:34;7.05;;;6.55;;
12880;SDS011;6508;53.786;9.996;2023-08-20T08:36:02;6.32;;;5.80;;
12880;SDS011;6508;53.786;9.996;2023-08-20T08:38:31;6.15;;;5.75;;
12880;SDS011;6508;53.786;9.996;2023-08-20T08:40:59;7.10;;;6.47;;
12880;SDS011;6508;53.786;9.996;2023-08-20T08:43:28;5.57;;;5.18;;
12880;SDS011;6508;53.786;9.996;2023-08-20T08:45:57;7.40;;;6.70;;
12880;SDS011;6508;53.786;9.996;2023-08-20T08:48:25;7.05;;;6.38;;
12880;SDS011;6508;53.786;9.996;2023-08-20T08:50:53;6.45;;;5.85;;
12880;SDS011;6508;53.786;9.996;2023-08-20T08:53:23;6.35;;;5.95;;
12880;SDS011;6508;53.786;9.996;2023-08-20T08:55:52;7.55;;;6.82;;
12880;SDS011;6508;53.786;9.996;2023-08-20T08:58:20;5.82;;;5.35;;
12880;SDS011;6508;53.786;9.996;2023-08-20T09:00:48;6.85;;;6.47;;
12880;SDS011;6508;53.786;9.996;2023-08-20T09:03:16;6.82;;;5.35;;
12880;SDS011;6508;53.786;9.996;2023-08-20T09:05:47;5.60;;;4.95;;
12880;SDS011;6508;53.786;9.996;2023-08-20T09:08:18;5.30;;;4.85;;
12880;SDS011;6508;53.786;9.996;2023-08-20T09:10:47;6.35;;;5.95;;
12880;SDS011;6508;53.786;9.996;2023-08-20T09:13:18;6.40;;;5.85;;
12880;SDS011;6508;53.786;9.996;2023-08-20T09:15:50;6.55;;;6.10;;
12880;SDS011;6508;53.786;9.996;2023-08-20T09:18:18;6.47;;;5.97;;
12880;SDS011;6508;53.786;9.996;2023-08-20T09:20:47;6.07;;;5.43;;
12880;SDS011;6508;53.786;9.996;2023-08-20T09:23:15;5.90;;;5.30;;
12880;SDS011;6508;53.786;9.996;2023-08-20T09:25:43;5.03;;;4.80;;
12880;SDS011;6508;53.786;9.996;2023-08-20T09:28:11;6.05;;;5.65;;
12880;SDS011;6508;53.786;9.996;2023-08-20T09:30:40;6.05;;;4.60;;
12880;SDS011;6508;53.786;9.996;2023-08-20T09:33:22;5.50;;;4.40;;
12880;SDS011;6508;53.786;9.996;2023-08-20T09:35:50;4.20;;;3.90;;
12880;SDS011;6508;53.786;9.996;2023-08-20T09:38:20;3.97;;;3.67;;
12880;SDS011;6508;53.786;9.996;2023-08-20T09:40:49;4.28;;;3.53;;
12880;SDS011;6508;53.786;9.996;2023-08-20T09:43:19;6.13;;;4.50;;
12880;SDS011;6508;53.786;9.996;2023-08-20T09:45:48;4.32;;;3.67;;
12880;SDS011;6508;53.786;9.996;2023-08-20T09:48:17;6.07;;;4.13;;
12880;SDS011;6508;53.786;9.996;2023-08-20T09:50:46;4.35;;;4.00;;
12880;SDS011;6508;53.786;9.996;2023-08-20T09:53:17;6.13;;;3.92;;
12880;SDS011;6508;53.786;9.996;2023-08-20T09:55:49;3.30;;;3.08;;
12880;SDS011;6508;53.786;9.996;2023-08-20T09:58:18;4.60;;;3.50;;
12880;SDS011;6508;53.786;9.996;2023-08-20T10:00:49;4.78;;;3.40;;
12880;SDS011;6508;53.786;9.996;2023-08-20T10:03:18;4.32;;;3.92;;
12880;SDS011;6508;53.786;9.996;2023-08-20T10:05:46;4.18;;;3.95;;
12880;SDS011;6508;53.786;9.996;2023-08-20T10:08:14;4.45;;;3.92;;
12880;SDS011;6508;53.786;9.996;2023-08-20T10:10:42;3.85;;;3.28;;
12880;SDS011;6508;53.786;9.996;2023-08-20T10:13:10;4.25;;;3.95;;
12880;SDS011;6508;53.786;9.996;2023-08-20T10:15:40;3.70;;;3.35;;
12880;SDS011;6508;53.786;9.996;2023-08-20T10:18:12;3.35;;;3.13;;
12880;SDS011;6508;53.786;9.996;2023-08-20T10:20:41;3.65;;;3.22;;
12880;SDS011;6508;53.786;9.996;2023-08-20T10:23:09;3.40;;;3.20;;
12880;SDS011;6508;53.786;9.996;2023-08-20T10:25:42;3.47;;;3.28;;
12880;SDS011;6508;53.786;9.996;2023-08-20T10:28:12;3.60;;;3.40;;
12880;SDS011;6508;53.786;9.996;2023-08-20T10:33:24;3.72;;;3.35;;
12880;SDS011;6508;53.786;9.996;2023-08-20T10:35:52;3.75;;;3.45;;
12880;SDS011;6508;53.786;9.996;2023-08-20T10:38:22;3.97;;;3.20;;
12880;SDS011;6508;53.786;9.996;2023-08-20T10:40:53;6.63;;;4.07;;
12880;SDS011;6508;53.786;9.996;2023-08-20T10:43:31;3.60;;;3.40;;
12880;SDS011;6508;53.786;9.996;2023-08-20T10:46:03;4.40;;;4.10;;
12880;SDS011;6508;53.786;9.996;2023-08-20T10:48:37;3.88;;;3.58;;
12880;SDS011;6508;53.786;9.996;2023-08-20T10:51:11;4.47;;;4.07;;
12880;SDS011;6508;53.786;9.996;2023-08-20T10:53:40;3.92;;;3.70;;
12880;SDS011;6508;53.786;9.996;2023-08-20T10:56:08;6.35;;;3.65;;
12880;SDS011;6508;53.786;9.996;2023-08-20T10:58:38;4.13;;;3.92;;
12880;SDS011;6508;53.786;9.996;2023-08-20T11:01:16;4.63;;;4.20;;
12880;SDS011;6508;53.786;9.996;2023-08-20T11:03:47;3.63;;;3.42;;
12880;SDS011;6508;53.786;9.996;2023-08-20T11:06:16;6.88;;;3.53;;
12880;SDS011;6508;53.786;9.996;2023-08-20T11:08:44;4.18;;;3.45;;
12880;SDS011;6508;53.786;9.996;2023-08-20T11:11:12;5.88;;;3.85;;
12880;SDS011;6508;53.786;9.996;2023-08-20T11:13:41;3.72;;;3.42;;
12880;SDS011;6508;53.786;9.996;2023-08-20T11:16:09;5.80;;;3.78;;
12880;SDS011;6508;53.786;9.996;2023-08-20T11:18:37;4.00;;;3.65;;
12880;SDS011;6508;53.786;9.996;2023-08-20T11:21:06;5.45;;;3.40;;
12880;SDS011;6508;53.786;9.996;2023-08-20T11:23:35;3.60;;;3.33;;
12880;SDS011;6508;53.786;9.996;2023-08-20T11:26:05;4.32;;;3.55;;
12880;SDS011;6508;53.786;9.996;2023-08-20T11:28:34;3.72;;;3.45;;
12880;SDS011;6508;53.786;9.996;2023-08-20T11:31:02;4.43;;;4.10;;
12880;SDS011;6508;53.786;9.996;2023-08-20T11:33:30;3.53;;;3.33;;
12880;SDS011;6508;53.786;9.996;2023-08-20T11:35:58;4.32;;;4.03;;
12880;SDS011;6508;53.786;9.996;2023-08-20T11:38:27;3.63;;;3.33;;
12880;SDS011;6508;53.786;9.996;2023-08-20T11:40:57;3.20;;;3.00;;
12880;SDS011;6508;53.786;9.996;2023-08-20T11:43:26;3.30;;;3.10;;
12880;SDS011;6508;53.786;9.996;2023-08-20T11:45:55;3.53;;;3.13;;
12880;SDS011;6508;53.786;9.996;2023-08-20T11:48:23;3.25;;;3.03;;
12880;SDS011;6508;53.786;9.996;2023-08-20T11:50:50;4.03;;;3.35;;
12880;SDS011;6508;53.786;9.996;2023-08-20T11:53:20;4.20;;;3.50;;
12880;SDS011;6508;53.786;9.996;2023-08-20T11:55:49;3.67;;;3.38;;
12880;SDS011;6508;53.786;9.996;2023-08-20T11:58:18;3.97;;;3.70;;
12880;SDS011;6508;53.786;9.996;2023-08-20T12:00:48;4.03;;;3.50;;
12880;SDS011;6508;53.786;9.996;2023-08-20T12:03:17;3.40;;;3.20;;
12880;SDS011;6508;53.786;9.996;2023-08-20T12:05:46;3.50;;;3.25;;
12880;SDS011;6508;53.786;9.996;2023-08-20T12:08:15;3.85;;;3.55;;
12880;SDS011;6508;53.786;9.996;2023-08-20T12:10:43;3.40;;;3.20;;
12880;SDS011;6508;53.786;9.996;2023-08-20T12:13:12;4.70;;;3.00;;
12880;SDS011;6508;53.786;9.996;2023-08-20T12:15:41;3.70;;;3.40;;
12880;SDS011;6508;53.786;9.996;2023-08-20T12:18:09;3.25;;;3.00;;
12880;SDS011;6508;53.786;9.996;2023-08-20T12:20:37;3.30;;;3.00;;
12880;SDS011;6508;53.786;9.996;2023-08-20T12:23:06;3.00;;;2.80;;
12880;SDS011;6508;53.786;9.996;2023-08-20T12:25:34;3.30;;;3.00;;
12880;SDS011;6508;53.786;9.996;2023-08-20T12:28:03;3.72;;;3.33;;
12880;SDS011;6508;53.786;9.996;2023-08-20T12:30:33;2.75;;;2.65;;
12880;SDS011;6508;53.786;9.996;2023-08-20T12:33:04;2.97;;;2.78;;
12880;SDS011;6508;53.786;9.996;2023-08-20T12:35:33;2.97;;;2.55;;
12880;SDS011;6508;53.786;9.996;2023-08-20T12:38:02;2.67;;;2.58;;
12880;SDS011;6508;53.786;9.996;2023-08-20T12:40:30;2.95;;;2.58;;
12880;SDS011;6508;53.786;9.996;2023-08-20T12:42:58;3.22;;;2.97;;
12880;SDS011;6508;53.786;9.996;2023-08-20T12:45:26;3.67;;;2.88;;
12880;SDS011;6508;53.786;9.996;2023-08-20T12:47:55;3.00;;;2.70;;
12880;SDS011;6508;53.786;9.996;2023-08-20T12:50:27;2.75;;;2.55;;
12880;SDS011;6508;53.786;9.996;2023-08-20T12:52:56;2.95;;;2.85;;
12880;SDS011;6508;53.786;9.996;2023-08-20T12:55:24;2.78;;;2.67;;
12880;SDS011;6508;53.786;9.996;2023-08-20T12:57:52;2.88;;;2.67;;
12880;SDS011;6508;53.786;9.996;2023-08-20T13:00:20;2.95;;;2.65;;
12880;SDS011;6508;53.786;9.996;2023-08-20T13:02:48;3.08;;;2.80;;
12880;SDS011;6508;53.786;9.996;2023-08-20T13:05:18;3.00;;;2.70;;
12880;SDS011;6508;53.786;9.996;2023-08-20T13:07:46;3.20;;;2.60;;
12880;SDS011;6508;53.786;9.996;2023-08-20T13:10:14;2.63;;;2.53;;
12880;SDS011;6508;53.786;9.996;2023-08-20T13:12:42;3.10;;;2.90;;
12880;SDS011;6508;53.786;9.996;2023-08-20T13:15:15;2.92;;;2.70;;
12880;SDS011;6508;53.786;9.996;2023-08-20T13:17:45;2.78;;;2.60;;
12880;SDS011;6508;53.786;9.996;2023-08-20T13:20:13;2.85;;;2.75;;
12880;SDS011;6508;53.786;9.996;2023-08-20T13:22:42;3.03;;;2.60;;
12880;SDS011;6508;53.786;9.996;2023-08-20T13:25:11;2.70;;;2.50;;
12880;SDS011;6508;53.786;9.996;2023-08-20T13:27:39;2.75;;;2.60;;
12880;SDS011;6508;53.786;9.996;2023-08-20T13:30:06;3.55;;;2.50;;
12880;SDS011;6508;53.786;9.996;2023-08-20T13:32:35;2.47;;;2.38;;
12880;SDS011;6508;53.786;9.996;2023-08-20T13:35:04;2.58;;;2.20;;
12880;SDS011;6508;53.786;9.996;2023-08-20T13:37:33;3.00;;;2.78;;
12880;SDS011;6508;53.786;9.996;2023-08-20T13:40:03;2.10;;;2.00;;
12880;SDS011;6508;53.786;9.996;2023-08-20T13:42:31;2.30;;;2.20;;
12880;SDS011;6508;53.786;9.996;2023-08-20T13:44:59;2.40;;;2.30;;
12880;SDS011;6508;53.786;9.996;2023-08-20T13:47:27;2.72;;;2.60;;
12880;SDS011;6508;53.786;9.996;2023-08-20T13:49:55;2.97;;;2.58;;
12880;SDS011;6508;53.786;9.996;2023-08-20T13:52:23;2.67;;;2.47;;
12880;SDS011;6508;53.786;9.996;2023-08-20T13:54:50;2.97;;;2.78;;
12880;SDS011;6508;53.786;9.996;2023-08-20T13:57:19;2.55;;;2.42;;
12880;SDS011;6508;53.786;9.996;2023-08-20T13:59:48;2.80;;;2.60;;
12880;SDS011;6508;53.786;9.996;2023-08-20T14:02:16;3.17;;;2.10;;
12880;SDS011;6508;53.786;9.996;2023-08-20T14:04:44;2.53;;;2.00;;
12880;SDS011;6508;53.786;9.996;2023-08-20T14:07:12;2.28;;;2.08;;
12880;SDS011;6508;53.786;9.996;2023-08-20T14:09:40;2.47;;;2.28;;
12880;SDS011;6508;53.786;9.996;2023-08-20T14:12:08;6.85;;;2.42;;
12880;SDS011;6508;53.786;9.996;2023-08-20T14:14:37;2.20;;;2.00;;
12880;SDS011;6508;53.786;9.996;2023-08-20T14:17:05;2.78;;;2.17;;
12880;SDS011;6508;53.786;9.996;2023-08-20T14:19:34;4.03;;;2.20;;
12880;SDS011;6508;53.786;9.996;2023-08-20T14:22:01;4.32;;;2.33;;
12880;SDS011;6508;53.786;9.996;2023-08-20T14:24:30;2.13;;;2.00;;
12880;SDS011;6508;53.786;9.996;2023-08-20T14:26:57;2.70;;;2.50;;
12880;SDS011;6508;53.786;9.996;2023-08-20T14:29:25;2.50;;;2.30;;
12880;SDS011;6508;53.786;9.996;2023-08-20T14:31:54;3.55;;;2.28;;
12880;SDS011;6508;53.786;9.996;2023-08-20T14:34:22;2.30;;;2.10;;
12880;SDS011;6508;53.786;9.996;2023-08-20T14:36:50;3.10;;;1.90;;
12880;SDS011;6508;53.786;9.996;2023-08-20T14:39:18;2.83;;;2.25;;
12880;SDS011;6508;53.786;9.996;2023-08-20T14:41:46;2.45;;;2.30;;
12880;SDS011;6508;53.786;9.996;2023-08-20T14:44:14;2.72;;;2.13;;
12880;SDS011;6508;53.786;9.996;2023-08-20T14:46:42;4.50;;;2.50;;
12880;SDS011;6508;53.786;9.996;2023-08-20T14:49:11;2.20;;;2.10;;
12880;SDS011;6508;53.786;9.996;2023-08-20T14:51:40;3.28;;;2.50;;
12880;SDS011;6508;53.786;9.996;2023-08-20T14:54:07;2.30;;;2.20;;
12880;SDS011;6508;53.786;9.996;2023-08-20T14:56:35;2.15;;;2.00;;
12880;SDS011;6508;53.786;9.996;2023-08-20T14:59:03;2.40;;;2.10;;
12880;SDS011;6508;53.786;9.996;2023-08-20T15:01:31;3.55;;;2.30;;